sensor_id;sensor_type;location;lat;lon;timestamp;P1;durP1;ratioP1;P2;durP2;ratioP2
61411;SDS011;47278;49.732;7.690;2023-02-28T20:17:23;8.77;;;6.50;;
61411;SDS011;47278;49.732;7.690;2023-02-28T20:19:55;13.27;;;7.10;;
61411;SDS011;47278;49.732;7.690;2023-02-28T20:22:21;11.13;;;6.73;;
61411;SDS011;47278;49.732;7.690;2023-02-28T20:24:47;10.63;;;7.67;;
61411;SDS011;47278;49.732;7.690;2023-02-28T20:27:13;9.83;;;6.73;;
61411;SDS011;47278;49.732;7.690;2023-02-28T20:29:40;9.17;;;6.63;;
61411;SDS011;47278;49.732;7.690;2023-02-28T20:32:09;10.30;;;6.83;;
61411;SDS011;47278;49.732;7.690;2023-02-28T20:34:38;11.27;;;7.10;;
61411;SDS011;47278;49.732;7.690;2023-02-28T20:37:15;12.17;;;7.70;;
61411;SDS011;47278;49.732;7.690;2023-02-28T20:39:44;12.03;;;8.40;;
61411;SDS011;47278;49.732;7.690;2023-02-28T20:42:18;13.97;;;8.07;;
61411;SDS011;47278;49.732;7.690;2023-02-28T20:44:46;12.87;;;8.00;;
61411;SDS011;47278;49.732;7.690;2023-02-28T20:47:13;10.90;;;7.77;;
61411;SDS011;47278;49.732;7.690;2023-02-28T20:49:40;9.67;;;6.90;;
61411;SDS011;47278;49.732;7.690;2023-02-28T20:52:08;11.47;;;7.50;;
61411;SDS011;47278;49.732;7.690;2023-02-28T20:54:34;13.10;;;7.60;;
61411;SDS011;47278;49.732;7.690;2023-02-28T20:57:01;12.93;;;7.33;;
61411;SDS011;47278;49.732;7.690;2023-02-28T20:59:28;14.97;;;8.27;;
61411;SDS011;47278;49.732;7.690;2023-02-28T21:01:56;12.53;;;8.67;;
61411;SDS011;47278;49.732;7.690;2023-02-28T21:04:23;10.90;;;7.97;;
61411;SDS011;47278;49.732;7.690;2023-02-28T21:06:50;12.37;;;7.80;;
61411;SDS011;47278;49.732;7.690;2023-02-28T21:09:18;16.63;;;9.10;;
61411;SDS011;47278;49.732;7.690;2023-02-28T21:11:44;28.37;;;13.10;;
61411;SDS011;47278;49.732;7.690;2023-02-28T21:14:16;21.67;;;11.30;;
61411;SDS011;47278;49.732;7.690;2023-02-28T21:16:44;14.13;;;8.57;;
61411;SDS011;47278;49.732;7.690;2023-02-28T21:19:11;17.90;;;9.87;;
61411;SDS011;47278;49.732;7.690;2023-02-28T21:21:41;25.73;;;13.27;;
61411;SDS011;47278;49.732;7.690;2023-02-28T21:24:08;16.93;;;8.80;;
61411;SDS011;47278;49.732;7.690;2023-02-28T21:26:40;22.50;;;12.37;;
61411;SDS011;47278;49.732;7.690;2023-02-28T21:29:06;23.53;;;12.13;;
61411;SDS011;47278;49.732;7.690;2023-02-28T21:31:32;23.43;;;11.93;;
61411;SDS011;47278;49.732;7.690;2023-02-28T21:34:00;13.10;;;8.43;;
61411;SDS011;47278;49.732;7.690;2023-02-28T21:36:28;17.10;;;9.43;;
61411;SDS011;47278;49.732;7.690;2023-02-28T21:39:39;12.33;;;7.87;;
61411;SDS011;47278;49.732;7.690;2023-02-28T21:41:49;12.67;;;7.70;;
61411;SDS011;47278;49.732;7.690;2023-02-28T21:44:15;10.77;;;7.47;;
61411;SDS011;47278;49.732;7.690;2023-02-28T21:46:47;13.23;;;8.00;;
61411;SDS011;47278;49.732;7.690;2023-02-28T21:49:16;14.07;;;8.27;;
61411;SDS011;47278;49.732;7.690;2023-02-28T21:51:41;14.37;;;8.00;;
61411;SDS011;47278;49.732;7.690;2023-02-28T21:54:07;14.13;;;8.93;;
61411;SDS011;47278;49.732;7.690;2023-02-28T21:56:35;12.70;;;7.47;;
